sensor_id;sensor_type;location;lat;lon;timestamp;pressure;altitude;pressure_sealevel;temperature;humidity
16821;BME280;8527;49.740;6.604;2023-10-19T00:00:37;97801.50;;;13.47;100.00
16821;BME280;8527;49.740;6.604;2023-10-19T00:05:43;97802.63;;;13.40;100.00
16821;BME280;8527;49.740;6.604;2023-10-19T00:10:47;97805.78;;;13.48;100.00
16821;BME280;8527;49.740;6.604;2023-10-19T00:15:53;97800.88;;;13.57;100.00
16821;BME280;8527;49.740;6.604;2023-10-19T00:20:54;97803.19;;;13.66;100.00
16821;BME280;8527;49.740;6.604;2023-10-19T00:26:06;97810.69;;;13.69;100.00
16821;BME280;8527;49.740;6.604;2023-10-19T00:31:23;97799.91;;;13.75;100.00
16821;BME280;8527;49.740;6.604;2023-10-19T00:36:24;97797.28;;;13.92;100.00
16821;BME280;8527;49.740;6.604;2023-10-19T00:41:26;97791.25;;;13.97;100.00
16821;BME280;8527;49.740;6.604;2023-10-19T00:46:32;97790.75;;;14.00;100.00
16821;BME280;8527;49.740;6.604;2023-10-19T00:51:43;97792.69;;;14.05;100.00
16821;BME280;8527;49.740;6.604;2023-10-19T00:57:08;97783.66;;;14.06;100.00
16821;BME280;8527;49.740;6.604;2023-10-19T01:02:12;97780.84;;;14.13;100.00
16821;BME280;8527;49.740;6.604;2023-10-19T01:07:24;97793.75;;;14.21;100.00
16821;BME280;8527;49.740;6.604;2023-10-19T01:12:28;97788.19;;;14.23;100.00
16821;BME280;8527;49.740;6.604;2023-10-19T01:17:37;97787.09;;;14.35;100.00
16821;BME280;8527;49.740;6.604;2023-10-19T01:22:48;97789.25;;;14.39;100.00
16821;BME280;8527;49.740;6.604;2023-10-19T01:27:48;97780.75;;;14.42;100.00
16821;BME280;8527;49.740;6.604;2023-10-19T01:32:50;97783.25;;;14.48;100.00
16821;BME280;8527;49.740;6.604;2023-10-19T01:38:00;97771.16;;;14.41;100.00
16821;BME280;8527;49.740;6.604;2023-10-19T01:43:05;97771.53;;;14.32;100.00
16821;BME280;8527;49.740;6.604;2023-10-19T01:48:04;97773.81;;;14.24;100.00
16821;BME280;8527;49.740;6.604;2023-10-19T01:53:06;97774.44;;;14.14;100.00
16821;BME280;8527;49.740;6.604;2023-10-19T01:58:10;97768.47;;;14.24;100.00
16821;BME280;8527;49.740;6.604;2023-10-19T02:03:12;97756.56;;;14.14;100.00
16821;BME280;8527;49.740;6.604;2023-10-19T02:08:17;97740.66;;;14.19;100.00
16821;BME280;8527;49.740;6.604;2023-10-19T02:13:20;97753.28;;;14.07;100.00
16821;BME280;8527;49.740;6.604;2023-10-19T02:18:27;97755.94;;;14.07;100.00
16821;BME280;8527;49.740;6.604;2023-10-19T02:23:29;97755.53;;;14.15;100.00
16821;BME280;8527;49.740;6.604;2023-10-19T02:28:31;97746.06;;;14.07;100.00
16821;BME280;8527;49.740;6.604;2023-10-19T02:33:33;97733.06;;;14.11;100.00
16821;BME280;8527;49.740;6.604;2023-10-19T02:38:40;97732.19;;;14.23;100.00
16821;BME280;8527;49.740;6.604;2023-10-19T02:44:25;97735.41;;;14.25;100.00
16821;BME280;8527;49.740;6.604;2023-10-19T02:49:19;97717.06;;;14.28;100.00
16821;BME280;8527;49.740;6.604;2023-10-19T02:54:22;97715.94;;;14.24;100.00
16821;BME280;8527;49.740;6.604;2023-10-19T02:59:28;97715.38;;;14.22;100.00
16821;BME280;8527;49.740;6.604;2023-10-19T03:04:27;97716.19;;;14.23;100.00
16821;BME280;8527;49.740;6.604;2023-10-19T03:09:33;97708.84;;;14.30;100.00
16821;BME280;8527;49.740;6.604;2023-10-19T03:14:44;97693.22;;;14.21;100.00
16821;BME280;8527;49.740;6.604;2023-10-19T03:19:46;97694.06;;;14.22;100.00
16821;BME280;8527;49.740;6.604;2023-10-19T03:24:47;97697.34;;;14.29;100.00
16821;BME280;8527;49.740;6.604;2023-10-19T03:29:55;97692.56;;;14.31;100.00
16821;BME280;8527;49.740;6.604;2023-10-19T03:35:00;97692.81;;;14.30;100.00
16821;BME280;8527;49.740;6.604;2023-10-19T03:40:04;97687.16;;;14.26;100.00
16821;BME280;8527;49.740;6.604;2023-10-19T03:45:06;97680.84;;;14.32;100.00
16821;BME280;8527;49.740;6.604;2023-10-19T03:50:09;97676.81;;;14.30;100.00
16821;BME280;8527;49.740;6.604;2023-10-19T03:55:13;97681.41;;;14.34;100.00
16821;BME280;8527;49.740;6.604;2023-10-19T04:00:14;97679.38;;;14.42;100.00
16821;BME280;8527;49.740;6.604;2023-10-19T04:05:19;97672.75;;;14.44;100.00
16821;BME280;8527;49.740;6.604;2023-10-19T04:10:25;97654.09;;;14.44;100.00
16821;BME280;8527;49.740;6.604;2023-10-19T04:15:39;97671.75;;;14.51;100.00
16821;BME280;8527;49.740;6.604;2023-10-19T04:20:39;97667.47;;;14.49;100.00
16821;BME280;8527;49.740;6.604;2023-10-19T04:25:53;97670.09;;;14.44;100.00
16821;BME280;8527;49.740;6.604;2023-10-19T04:30:53;97672.59;;;14.51;100.00
16821;BME280;8527;49.740;6.604;2023-10-19T04:35:52;97670.22;;;14.55;100.00
16821;BME280;8527;49.740;6.604;2023-10-19T04:40:54;97659.28;;;14.56;100.00
16821;BME280;8527;49.740;6.604;2023-10-19T04:45:52;97658.50;;;14.56;100.00
16821;BME280;8527;49.740;6.604;2023-10-19T04:50:51;97662.69;;;14.52;100.00
16821;BME280;8527;49.740;6.604;2023-10-19T04:55:49;97659.56;;;14.55;100.00
16821;BME280;8527;49.740;6.604;2023-10-19T05:00:52;97656.91;;;14.55;100.00
16821;BME280;8527;49.740;6.604;2023-10-19T05:05:56;97655.50;;;14.52;100.00
16821;BME280;8527;49.740;6.604;2023-10-19T05:10:58;97663.56;;;14.57;100.00
16821;BME280;8527;49.740;6.604;2023-10-19T05:16:00;97665.28;;;14.63;100.00
16821;BME280;8527;49.740;6.604;2023-10-19T05:20:59;97675.41;;;14.61;100.00
16821;BME280;8527;49.740;6.604;2023-10-19T05:26:01;97670.63;;;14.63;100.00
16821;BME280;8527;49.740;6.604;2023-10-19T05:31:05;97662.16;;;14.49;100.00
16821;BME280;8527;49.740;6.604;2023-10-19T05:36:07;97659.16;;;14.46;100.00
16821;BME280;8527;49.740;6.604;2023-10-19T05:41:10;97650.59;;;14.44;100.00
16821;BME280;8527;49.740;6.604;2023-10-19T05:46:15;97656.19;;;14.42;100.00
16821;BME280;8527;49.740;6.604;2023-10-19T05:51:17;97656.19;;;14.42;100.00
16821;BME280;8527;49.740;6.604;2023-10-19T05:56:15;97663.69;;;14.45;100.00
16821;BME280;8527;49.740;6.604;2023-10-19T06:01:19;97667.34;;;14.39;100.00
16821;BME280;8527;49.740;6.604;2023-10-19T06:06:18;97665.41;;;14.34;100.00
16821;BME280;8527;49.740;6.604;2023-10-19T06:11:17;97673.16;;;14.36;100.00
16821;BME280;8527;49.740;6.604;2023-10-19T06:16:15;97668.88;;;14.35;100.00
16821;BME280;8527;49.740;6.604;2023-10-19T06:21:19;97658.03;;;14.42;100.00
16821;BME280;8527;49.740;6.604;2023-10-19T06:26:19;97660.38;;;14.38;100.00
16821;BME280;8527;49.740;6.604;2023-10-19T06:31:17;97668.66;;;14.37;100.00
16821;BME280;8527;49.740;6.604;2023-10-19T06:36:22;97679.22;;;14.31;100.00
16821;BME280;8527;49.740;6.604;2023-10-19T06:41:20;97688.94;;;14.38;100.00
16821;BME280;8527;49.740;6.604;2023-10-19T06:46:19;97681.09;;;14.48;100.00
16821;BME280;8527;49.740;6.604;2023-10-19T06:51:18;97677.09;;;14.51;100.00
16821;BME280;8527;49.740;6.604;2023-10-19T06:56:20;97689.38;;;14.52;100.00
16821;BME280;8527;49.740;6.604;2023-10-19T07:01:21;97673.47;;;14.57;100.00
16821;BME280;8527;49.740;6.604;2023-10-19T07:06:21;97680.88;;;14.72;100.00
16821;BME280;8527;49.740;6.604;2023-10-19T07:11:22;97676.91;;;14.74;100.00
16821;BME280;8527;49.740;6.604;2023-10-19T07:16:22;97685.47;;;14.76;100.00
16821;BME280;8527;49.740;6.604;2023-10-19T07:21:25;97687.66;;;15.02;100.00
16821;BME280;8527;49.740;6.604;2023-10-19T07:26:33;97681.66;;;15.39;100.00
16821;BME280;8527;49.740;6.604;2023-10-19T07:31:38;97674.16;;;15.36;100.00
16821;BME280;8527;49.740;6.604;2023-10-19T07:36:40;97636.78;;;15.41;100.00
16821;BME280;8527;49.740;6.604;2023-10-19T07:41:41;97657.94;;;15.43;100.00
16821;BME280;8527;49.740;6.604;2023-10-19T07:46:50;97650.19;;;15.74;100.00
16821;BME280;8527;49.740;6.604;2023-10-19T07:51:49;97650.50;;;15.83;100.00
16821;BME280;8527;49.740;6.604;2023-10-19T07:56:51;97655.16;;;16.30;100.00
16821;BME280;8527;49.740;6.604;2023-10-19T08:01:52;97656.25;;;16.83;100.00
16821;BME280;8527;49.740;6.604;2023-10-19T08:06:51;97643.63;;;16.78;100.00
16821;BME280;8527;49.740;6.604;2023-10-19T08:11:53;97639.38;;;16.87;100.00
16821;BME280;8527;49.740;6.604;2023-10-19T08:16:57;97636.72;;;16.93;100.00
16821;BME280;8527;49.740;6.604;2023-10-19T08:21:57;97628.63;;;16.82;100.00
16821;BME280;8527;49.740;6.604;2023-10-19T08:26:58;97625.19;;;16.82;100.00
16821;BME280;8527;49.740;6.604;2023-10-19T08:31:57;97620.13;;;16.96;100.00
16821;BME280;8527;49.740;6.604;2023-10-19T08:36:56;97603.78;;;16.97;100.00
16821;BME280;8527;49.740;6.604;2023-10-19T08:42:00;97602.75;;;17.04;100.00
16821;BME280;8527;49.740;6.604;2023-10-19T08:47:02;97600.34;;;17.02;100.00
16821;BME280;8527;49.740;6.604;2023-10-19T08:52:05;97590.72;;;17.17;100.00
16821;BME280;8527;49.740;6.604;2023-10-19T08:57:09;97593.06;;;16.97;100.00
16821;BME280;8527;49.740;6.604;2023-10-19T09:02:09;97585.88;;;17.03;100.00
16821;BME280;8527;49.740;6.604;2023-10-19T09:07:08;97580.81;;;17.12;100.00
16821;BME280;8527;49.740;6.604;2023-10-19T09:12:09;97574.94;;;17.25;100.00
16821;BME280;8527;49.740;6.604;2023-10-19T09:17:13;97571.72;;;17.28;100.00
16821;BME280;8527;49.740;6.604;2023-10-19T09:22:13;97565.00;;;17.21;100.00
16821;BME280;8527;49.740;6.604;2023-10-19T09:27:23;97568.22;;;17.23;100.00
16821;BME280;8527;49.740;6.604;2023-10-19T09:32:22;97586.19;;;17.38;100.00
16821;BME280;8527;49.740;6.604;2023-10-19T09:37:20;97569.06;;;17.49;100.00
16821;BME280;8527;49.740;6.604;2023-10-19T09:42:24;97572.53;;;17.70;100.00
16821;BME280;8527;49.740;6.604;2023-10-19T09:47:27;97563.41;;;17.66;100.00
16821;BME280;8527;49.740;6.604;2023-10-19T09:52:28;97563.66;;;17.85;100.00
16821;BME280;8527;49.740;6.604;2023-10-19T09:57:34;97567.13;;;18.02;100.00
16821;BME280;8527;49.740;6.604;2023-10-19T10:02:34;97571.16;;;17.99;98.75
16821;BME280;8527;49.740;6.604;2023-10-19T10:07:33;97562.56;;;18.07;97.50
16821;BME280;8527;49.740;6.604;2023-10-19T10:12:38;97578.88;;;18.26;98.17
16821;BME280;8527;49.740;6.604;2023-10-19T10:17:38;97591.75;;;18.35;97.65
16821;BME280;8527;49.740;6.604;2023-10-19T10:22:36;97593.38;;;18.25;98.88
16821;BME280;8527;49.740;6.604;2023-10-19T10:27:49;97595.31;;;18.04;99.48
16821;BME280;8527;49.740;6.604;2023-10-19T10:32:51;97578.13;;;17.95;98.81
16821;BME280;8527;49.740;6.604;2023-10-19T10:37:54;97576.28;;;17.80;99.98
16821;BME280;8527;49.740;6.604;2023-10-19T10:43:07;97570.13;;;17.74;98.67
16821;BME280;8527;49.740;6.604;2023-10-19T10:48:11;97566.06;;;17.82;97.53
16821;BME280;8527;49.740;6.604;2023-10-19T10:53:11;97565.25;;;17.81;97.95
16821;BME280;8527;49.740;6.604;2023-10-19T10:58:17;97558.00;;;17.87;98.86
16821;BME280;8527;49.740;6.604;2023-10-19T11:03:17;97554.53;;;17.86;100.00
16821;BME280;8527;49.740;6.604;2023-10-19T11:08:17;97561.50;;;17.93;100.00
16821;BME280;8527;49.740;6.604;2023-10-19T11:13:27;97549.44;;;17.85;100.00
16821;BME280;8527;49.740;6.604;2023-10-19T11:18:33;97550.22;;;17.91;100.00
16821;BME280;8527;49.740;6.604;2023-10-19T11:23:42;97545.44;;;17.77;100.00
16821;BME280;8527;49.740;6.604;2023-10-19T11:28:43;97544.09;;;17.80;100.00
16821;BME280;8527;49.740;6.604;2023-10-19T11:33:50;97537.41;;;17.56;100.00
16821;BME280;8527;49.740;6.604;2023-10-19T11:38:53;97544.63;;;17.71;100.00
16821;BME280;8527;49.740;6.604;2023-10-19T11:43:55;97540.63;;;17.74;100.00
16821;BME280;8527;49.740;6.604;2023-10-19T11:48:53;97532.28;;;17.70;100.00
16821;BME280;8527;49.740;6.604;2023-10-19T11:53:52;97525.06;;;17.71;100.00
16821;BME280;8527;49.740;6.604;2023-10-19T11:58:51;97517.00;;;17.66;100.00
16821;BME280;8527;49.740;6.604;2023-10-19T12:03:53;97507.38;;;17.65;100.00
16821;BME280;8527;49.740;6.604;2023-10-19T12:08:51;97502.31;;;17.53;100.00
16821;BME280;8527;49.740;6.604;2023-10-19T12:13:52;97507.94;;;17.46;100.00
16821;BME280;8527;49.740;6.604;2023-10-19T12:18:58;97503.13;;;17.22;100.00
16821;BME280;8527;49.740;6.604;2023-10-19T12:23:56;97499.38;;;17.23;100.00
16821;BME280;8527;49.740;6.604;2023-10-19T12:28:56;97495.63;;;17.19;100.00
16821;BME280;8527;49.740;6.604;2023-10-19T12:33:59;97463.72;;;17.23;100.00
16821;BME280;8527;49.740;6.604;2023-10-19T12:39:01;97424.09;;;17.14;100.00
16821;BME280;8527;49.740;6.604;2023-10-19T12:44:00;97425.94;;;17.24;100.00
16821;BME280;8527;49.740;6.604;2023-10-19T12:49:06;97427.00;;;17.28;100.00
16821;BME280;8527;49.740;6.604;2023-10-19T12:54:11;97415.19;;;17.29;100.00
16821;BME280;8527;49.740;6.604;2023-10-19T12:59:13;97427.53;;;17.30;100.00
16821;BME280;8527;49.740;6.604;2023-10-19T13:04:16;97410.66;;;17.30;100.00
16821;BME280;8527;49.740;6.604;2023-10-19T13:09:19;97399.94;;;17.25;100.00
16821;BME280;8527;49.740;6.604;2023-10-19T13:14:28;97405.28;;;17.40;100.00
16821;BME280;8527;49.740;6.604;2023-10-19T13:19:30;97408.75;;;17.46;100.00
16821;BME280;8527;49.740;6.604;2023-10-19T13:24:34;97409.03;;;17.39;100.00
16821;BME280;8527;49.740;6.604;2023-10-19T13:29:36;97402.84;;;17.49;100.00
16821;BME280;8527;49.740;6.604;2023-10-19T13:34:39;97394.22;;;17.63;100.00
16821;BME280;8527;49.740;6.604;2023-10-19T13:39:38;97379.72;;;17.69;100.00
16821;BME280;8527;49.740;6.604;2023-10-19T13:44:36;97370.28;;;17.82;100.00
16821;BME280;8527;49.740;6.604;2023-10-19T13:49:34;97365.66;;;17.98;100.00
16821;BME280;8527;49.740;6.604;2023-10-19T13:54:36;97361.47;;;18.32;100.00
16821;BME280;8527;49.740;6.604;2023-10-19T13:59:37;97338.50;;;18.50;100.00
16821;BME280;8527;49.740;6.604;2023-10-19T14:04:35;97341.63;;;18.62;100.00
16821;BME280;8527;49.740;6.604;2023-10-19T14:09:36;97327.19;;;18.58;100.00
16821;BME280;8527;49.740;6.604;2023-10-19T14:14:41;97319.13;;;18.58;100.00
16821;BME280;8527;49.740;6.604;2023-10-19T14:19:39;97314.44;;;18.69;100.00
16821;BME280;8527;49.740;6.604;2023-10-19T14:24:45;97320.94;;;18.63;100.00
16821;BME280;8527;49.740;6.604;2023-10-19T14:29:46;97319.59;;;18.31;100.00
16821;BME280;8527;49.740;6.604;2023-10-19T14:34:55;97319.28;;;18.32;100.00
16821;BME280;8527;49.740;6.604;2023-10-19T14:39:59;97302.22;;;18.23;100.00
16821;BME280;8527;49.740;6.604;2023-10-19T14:44:58;97286.53;;;18.35;100.00
16821;BME280;8527;49.740;6.604;2023-10-19T14:49:57;97280.50;;;18.19;100.00
16821;BME280;8527;49.740;6.604;2023-10-19T14:54:55;97257.38;;;18.23;100.00
16821;BME280;8527;49.740;6.604;2023-10-19T14:59:57;97237.63;;;18.09;100.00
16821;BME280;8527;49.740;6.604;2023-10-19T15:05:03;97231.28;;;17.94;100.00
16821;BME280;8527;49.740;6.604;2023-10-19T15:10:02;97249.34;;;17.78;100.00
16821;BME280;8527;49.740;6.604;2023-10-19T15:15:08;97252.53;;;17.80;100.00
16821;BME280;8527;49.740;6.604;2023-10-19T15:20:09;97234.75;;;17.55;100.00
16821;BME280;8527;49.740;6.604;2023-10-19T15:25:13;97234.22;;;17.48;100.00
16821;BME280;8527;49.740;6.604;2023-10-19T15:30:18;97226.22;;;17.42;100.00
16821;BME280;8527;49.740;6.604;2023-10-19T15:35:17;97211.53;;;17.35;100.00
16821;BME280;8527;49.740;6.604;2023-10-19T15:40:18;97204.00;;;17.37;100.00
16821;BME280;8527;49.740;6.604;2023-10-19T15:45:19;97201.34;;;17.32;100.00
16821;BME280;8527;49.740;6.604;2023-10-19T15:50:20;97205.88;;;17.36;100.00
16821;BME280;8527;49.740;6.604;2023-10-19T15:55:20;97201.41;;;17.21;100.00
16821;BME280;8527;49.740;6.604;2023-10-19T16:00:25;97210.00;;;17.13;100.00
16821;BME280;8527;49.740;6.604;2023-10-19T16:05:23;97210.06;;;16.92;100.00
16821;BME280;8527;49.740;6.604;2023-10-19T16:10:22;97196.66;;;16.97;100.00
16821;BME280;8527;49.740;6.604;2023-10-19T16:15:20;97213.84;;;16.86;100.00
16821;BME280;8527;49.740;6.604;2023-10-19T16:20:21;97227.53;;;16.69;100.00
16821;BME280;8527;49.740;6.604;2023-10-19T16:25:20;97226.16;;;16.77;100.00
16821;BME280;8527;49.740;6.604;2023-10-19T16:30:19;97232.88;;;16.74;100.00
16821;BME280;8527;49.740;6.604;2023-10-19T16:35:21;97242.75;;;16.79;100.00
16821;BME280;8527;49.740;6.604;2023-10-19T16:40:20;97247.63;;;16.71;100.00
16821;BME280;8527;49.740;6.604;2023-10-19T16:45:19;97244.66;;;16.68;100.00
16821;BME280;8527;49.740;6.604;2023-10-19T16:50:17;97227.56;;;16.58;100.00
16821;BME280;8527;49.740;6.604;2023-10-19T16:55:19;97227.03;;;16.36;100.00
16821;BME280;8527;49.740;6.604;2023-10-19T17:00:18;97240.19;;;16.32;100.00
16821;BME280;8527;49.740;6.604;2023-10-19T17:05:17;97239.09;;;16.28;100.00
16821;BME280;8527;49.740;6.604;2023-10-19T17:10:20;97238.84;;;16.24;100.00
16821;BME280;8527;49.740;6.604;2023-10-19T17:15:22;97255.13;;;16.28;100.00
16821;BME280;8527;49.740;6.604;2023-10-19T17:20:26;97246.06;;;16.19;100.00
16821;BME280;8527;49.740;6.604;2023-10-19T17:25:27;97209.41;;;16.24;100.00
16821;BME280;8527;49.740;6.604;2023-10-19T17:30:26;97202.72;;;16.16;100.00
16821;BME280;8527;49.740;6.604;2023-10-19T17:35:24;97179.72;;;16.10;100.00
16821;BME280;8527;49.740;6.604;2023-10-19T17:40:23;97166.63;;;16.14;100.00
16821;BME280;8527;49.740;6.604;2023-10-19T17:45:31;97163.41;;;15.96;100.00
16821;BME280;8527;49.740;6.604;2023-10-19T17:50:30;97170.34;;;15.87;100.00
16821;BME280;8527;49.740;6.604;2023-10-19T17:55:29;97171.16;;;15.82;100.00
16821;BME280;8527;49.740;6.604;2023-10-19T18:00:38;97149.75;;;15.87;100.00
16821;BME280;8527;49.740;6.604;2023-10-19T18:05:44;97139.59;;;15.74;100.00
16821;BME280;8527;49.740;6.604;2023-10-19T18:10:43;97135.84;;;15.75;100.00
16821;BME280;8527;49.740;6.604;2023-10-19T18:15:44;97142.00;;;15.65;100.00
16821;BME280;8527;49.740;6.604;2023-10-19T18:20:49;97141.72;;;15.67;100.00
16821;BME280;8527;49.740;6.604;2023-10-19T18:25:48;97138.25;;;15.71;100.00
16821;BME280;8527;49.740;6.604;2023-10-19T18:30:58;97118.75;;;15.55;100.00
16821;BME280;8527;49.740;6.604;2023-10-19T18:35:57;97111.50;;;15.61;100.00
16821;BME280;8527;49.740;6.604;2023-10-19T18:41:00;97093.63;;;15.61;100.00
16821;BME280;8527;49.740;6.604;2023-10-19T18:46:04;97097.63;;;15.54;100.00
16821;BME280;8527;49.740;6.604;2023-10-19T18:51:06;97085.06;;;15.59;100.00
16821;BME280;8527;49.740;6.604;2023-10-19T18:56:08;97094.13;;;15.53;100.00
16821;BME280;8527;49.740;6.604;2023-10-19T19:01:09;97090.41;;;15.44;100.00
16821;BME280;8527;49.740;6.604;2023-10-19T19:06:08;97090.94;;;15.41;100.00
16821;BME280;8527;49.740;6.604;2023-10-19T19:11:09;97102.44;;;15.41;100.00
16821;BME280;8527;49.740;6.604;2023-10-19T19:16:15;97073.31;;;15.35;100.00
16821;BME280;8527;49.740;6.604;2023-10-19T19:21:18;97078.13;;;15.32;100.00
16821;BME280;8527;49.740;6.604;2023-10-19T19:26:17;97080.25;;;15.20;100.00
16821;BME280;8527;49.740;6.604;2023-10-19T19:31:21;97074.09;;;15.30;100.00
16821;BME280;8527;49.740;6.604;2023-10-19T19:36:22;97084.78;;;15.25;100.00
16821;BME280;8527;49.740;6.604;2023-10-19T19:41:21;97093.59;;;15.25;100.00
16821;BME280;8527;49.740;6.604;2023-10-19T19:46:26;97089.31;;;15.29;100.00
16821;BME280;8527;49.740;6.604;2023-10-19T19:51:26;97085.03;;;15.23;100.00
16821;BME280;8527;49.740;6.604;2023-10-19T19:56:28;97074.91;;;15.30;100.00
16821;BME280;8527;49.740;6.604;2023-10-19T20:01:29;97068.50;;;15.31;100.00
16821;BME280;8527;49.740;6.604;2023-10-19T20:06:28;97061.28;;;15.27;100.00
16821;BME280;8527;49.740;6.604;2023-10-19T20:11:26;97059.41;;;15.27;100.00
16821;BME280;8527;49.740;6.604;2023-10-19T20:16:37;97062.88;;;15.28;100.00
16821;BME280;8527;49.740;6.604;2023-10-19T20:21:36;97041.00;;;15.26;100.00
16821;BME280;8527;49.740;6.604;2023-10-19T20:26:34;97040.19;;;15.30;100.00
16821;BME280;8527;49.740;6.604;2023-10-19T20:31:38;97036.72;;;15.25;100.00
16821;BME280;8527;49.740;6.604;2023-10-19T20:36:37;97033.22;;;15.24;100.00
16821;BME280;8527;49.740;6.604;2023-10-19T20:41:43;97028.16;;;15.28;100.00
16821;BME280;8527;49.740;6.604;2023-10-19T20:46:49;97019.34;;;15.32;100.00
16821;BME280;8527;49.740;6.604;2023-10-19T20:51:47;97026.28;;;15.33;100.00
16821;BME280;8527;49.740;6.604;2023-10-19T20:56:46;97018.03;;;15.25;100.00
16821;BME280;8527;49.740;6.604;2023-10-19T21:01:44;97017.47;;;15.17;100.00
16821;BME280;8527;49.740;6.604;2023-10-19T21:06:48;97024.97;;;15.26;100.00
16821;BME280;8527;49.740;6.604;2023-10-19T21:11:47;97019.59;;;15.31;100.00
16821;BME280;8527;49.740;6.604;2023-10-19T21:16:45;96987.81;;;15.35;100.00
16821;BME280;8527;49.740;6.604;2023-10-19T21:21:46;96980.06;;;15.43;100.00
16821;BME280;8527;49.740;6.604;2023-10-19T21:26:45;96972.59;;;15.35;100.00
16821;BME280;8527;49.740;6.604;2023-10-19T21:31:43;96986.47;;;15.32;100.00
16821;BME280;8527;49.740;6.604;2023-10-19T21:36:42;96980.88;;;15.33;100.00
16821;BME280;8527;49.740;6.604;2023-10-19T21:41:43;96959.78;;;15.37;100.00
16821;BME280;8527;49.740;6.604;2023-10-19T21:46:47;96949.34;;;15.36;100.00
16821;BME280;8527;49.740;6.604;2023-10-19T21:51:46;96936.53;;;15.38;100.00
16821;BME280;8527;49.740;6.604;2023-10-19T21:56:47;96908.75;;;15.39;100.00
16821;BME280;8527;49.740;6.604;2023-10-19T22:01:47;96898.06;;;15.39;100.00
16821;BME280;8527;49.740;6.604;2023-10-19T22:06:49;96887.94;;;15.30;100.00
16821;BME280;8527;49.740;6.604;2023-10-19T22:11:50;96884.69;;;15.39;100.00
16821;BME280;8527;49.740;6.604;2023-10-19T22:16:48;96875.09;;;15.32;100.00
16821;BME280;8527;49.740;6.604;2023-10-19T22:21:47;96861.47;;;15.34;100.00
16821;BME280;8527;49.740;6.604;2023-10-19T22:26:52;96862.00;;;15.36;100.00
16821;BME280;8527;49.740;6.604;2023-10-19T22:32:01;96850.25;;;15.32;100.00
16821;BME280;8527;49.740;6.604;2023-10-19T22:37:02;96851.34;;;15.21;100.00
16821;BME280;8527;49.740;6.604;2023-10-19T22:42:03;96835.63;;;15.19;100.00
16821;BME280;8527;49.740;6.604;2023-10-19T22:47:11;96824.13;;;15.18;100.00
16821;BME280;8527;49.740;6.604;2023-10-19T22:52:13;96812.09;;;15.16;100.00
16821;BME280;8527;49.740;6.604;2023-10-19T22:57:16;96796.88;;;15.22;100.00
16821;BME280;8527;49.740;6.604;2023-10-19T23:02:17;96793.97;;;15.18;100.00
16821;BME280;8527;49.740;6.604;2023-10-19T23:07:15;96788.66;;;15.08;100.00
16821;BME280;8527;49.740;6.604;2023-10-19T23:12:19;96783.84;;;15.10;100.00
16821;BME280;8527;49.740;6.604;2023-10-19T23:17:32;96780.13;;;15.05;100.00
16821;BME280;8527;49.740;6.604;2023-10-19T23:22:37;96770.78;;;15.03;100.00
16821;BME280;8527;49.740;6.604;2023-10-19T23:27:49;96768.06;;;15.08;100.00
16821;BME280;8527;49.740;6.604;2023-10-19T23:32:48;96771.00;;;15.12;100.00
16821;BME280;8527;49.740;6.604;2023-10-19T23:37:46;96776.59;;;15.10;100.00
16821;BME280;8527;49.740;6.604;2023-10-19T23:42:55;96773.19;;;14.99;100.00
16821;BME280;8527;49.740;6.604;2023-10-19T23:48:06;96754.50;;;15.04;100.00
16821;BME280;8527;49.740;6.604;2023-10-19T23:53:08;96748.59;;;15.02;100.00
16821;BME280;8527;49.740;6.604;2023-10-19T23:58:09;96743.28;;;14.97;100.00
